sensor_id;sensor_type;location;lat;lon;timestamp;P1;durP1;ratioP1;P2;durP2;ratioP2
16600;SDS011;34891;48.164;11.572;2023-04-24T00:01:06;0.80;;;0.63;;
16600;SDS011;34891;48.164;11.572;2023-04-24T00:06:10;1.27;;;0.73;;
16600;SDS011;34891;48.164;11.572;2023-04-24T00:11:14;0.80;;;0.75;;
16600;SDS011;34891;48.164;11.572;2023-04-24T00:21:19;1.20;;;0.50;;
16600;SDS011;34891;48.164;11.572;2023-04-24T00:26:24;1.40;;;0.47;;
16600;SDS011;34891;48.164;11.572;2023-04-24T00:36:29;1.27;;;0.52;;
16600;SDS011;34891;48.164;11.572;2023-04-24T00:41:33;1.10;;;0.47;;
16600;SDS011;34891;48.164;11.572;2023-04-24T00:46:35;0.40;;;0.40;;
16600;SDS011;34891;48.164;11.572;2023-04-24T00:51:38;0.50;;;0.50;;
16600;SDS011;34891;48.164;11.572;2023-04-24T00:56:43;0.80;;;0.50;;
16600;SDS011;34891;48.164;11.572;2023-04-24T01:01:46;0.17;;;0.17;;
16600;SDS011;34891;48.164;11.572;2023-04-24T01:06:49;0.20;;;0.20;;
16600;SDS011;34891;48.164;11.572;2023-04-24T01:11:55;0.50;;;0.50;;
16600;SDS011;34891;48.164;11.572;2023-04-24T01:16:58;0.95;;;0.55;;
16600;SDS011;34891;48.164;11.572;2023-04-24T01:22:02;0.70;;;0.47;;
16600;SDS011;34891;48.164;11.572;2023-04-24T01:27:06;3.47;;;0.77;;
16600;SDS011;34891;48.164;11.572;2023-04-24T01:32:09;0.35;;;0.30;;
16600;SDS011;34891;48.164;11.572;2023-04-24T01:37:12;2.00;;;0.65;;
16600;SDS011;34891;48.164;11.572;2023-04-24T01:42:16;0.35;;;0.35;;
16600;SDS011;34891;48.164;11.572;2023-04-24T01:47:19;0.60;;;0.50;;
16600;SDS011;34891;48.164;11.572;2023-04-24T01:52:22;1.73;;;0.57;;
16600;SDS011;34891;48.164;11.572;2023-04-24T01:57:26;0.15;;;0.15;;
16600;SDS011;34891;48.164;11.572;2023-04-24T02:07:31;0.50;;;0.50;;
16600;SDS011;34891;48.164;11.572;2023-04-24T02:17:39;0.93;;;0.30;;
16600;SDS011;34891;48.164;11.572;2023-04-24T02:22:42;0.35;;;0.20;;
16600;SDS011;34891;48.164;11.572;2023-04-24T02:27:45;0.20;;;0.20;;
16600;SDS011;34891;48.164;11.572;2023-04-24T02:32:50;2.67;;;0.60;;
16600;SDS011;34891;48.164;11.572;2023-04-24T02:37:53;0.85;;;0.40;;
16600;SDS011;34891;48.164;11.572;2023-04-24T02:42:56;0.40;;;0.28;;
16600;SDS011;34891;48.164;11.572;2023-04-24T02:48:00;0.60;;;0.30;;
16600;SDS011;34891;48.164;11.572;2023-04-24T02:53:03;0.40;;;0.30;;
16600;SDS011;34891;48.164;11.572;2023-04-24T02:58:06;0.32;;;0.25;;
16600;SDS011;34891;48.164;11.572;2023-04-24T03:03:10;2.30;;;0.57;;
16600;SDS011;34891;48.164;11.572;2023-04-24T03:08:13;0.38;;;0.22;;
16600;SDS011;34891;48.164;11.572;2023-04-24T03:13:16;0.60;;;0.50;;
16600;SDS011;34891;48.164;11.572;2023-04-24T03:18:20;1.35;;;0.43;;
16600;SDS011;34891;48.164;11.572;2023-04-24T03:28:25;1.85;;;0.20;;
16600;SDS011;34891;48.164;11.572;2023-04-24T03:33:29;0.73;;;0.38;;
16600;SDS011;34891;48.164;11.572;2023-04-24T03:38:33;1.48;;;0.60;;
16600;SDS011;34891;48.164;11.572;2023-04-24T03:43:36;0.20;;;0.20;;
16600;SDS011;34891;48.164;11.572;2023-04-24T03:48:40;0.50;;;0.25;;
16600;SDS011;34891;48.164;11.572;2023-04-24T03:53:43;0.20;;;0.13;;
16600;SDS011;34891;48.164;11.572;2023-04-24T03:58:46;1.50;;;0.30;;
16600;SDS011;34891;48.164;11.572;2023-04-24T04:03:50;2.20;;;0.43;;
16600;SDS011;34891;48.164;11.572;2023-04-24T04:08:53;0.00;;;0.00;;
16600;SDS011;34891;48.164;11.572;2023-04-24T04:13:56;0.60;;;0.60;;
16600;SDS011;34891;48.164;11.572;2023-04-24T04:19:00;1.65;;;0.85;;
16600;SDS011;34891;48.164;11.572;2023-04-24T04:24:05;0.80;;;0.47;;
16600;SDS011;34891;48.164;11.572;2023-04-24T04:29:09;0.70;;;0.30;;
16600;SDS011;34891;48.164;11.572;2023-04-24T04:34:13;0.25;;;0.25;;
16600;SDS011;34891;48.164;11.572;2023-04-24T04:39:16;0.30;;;0.30;;
16600;SDS011;34891;48.164;11.572;2023-04-24T04:44:20;0.28;;;0.20;;
16600;SDS011;34891;48.164;11.572;2023-04-24T04:49:24;0.30;;;0.30;;
16600;SDS011;34891;48.164;11.572;2023-04-24T04:54:29;1.58;;;0.55;;
16600;SDS011;34891;48.164;11.572;2023-04-24T04:59:32;0.57;;;0.50;;
16600;SDS011;34891;48.164;11.572;2023-04-24T05:04:36;0.32;;;0.10;;
16600;SDS011;34891;48.164;11.572;2023-04-24T05:09:39;0.50;;;0.22;;
16600;SDS011;34891;48.164;11.572;2023-04-24T05:14:42;0.43;;;0.38;;
16600;SDS011;34891;48.164;11.572;2023-04-24T05:19:46;0.70;;;0.45;;
16600;SDS011;34891;48.164;11.572;2023-04-24T05:24:50;2.13;;;0.43;;
16600;SDS011;34891;48.164;11.572;2023-04-24T05:29:53;1.23;;;0.50;;
16600;SDS011;34891;48.164;11.572;2023-04-24T05:34:58;1.98;;;0.35;;
16600;SDS011;34891;48.164;11.572;2023-04-24T05:40:01;0.17;;;0.17;;
16600;SDS011;34891;48.164;11.572;2023-04-24T05:45:08;0.35;;;0.22;;
16600;SDS011;34891;48.164;11.572;2023-04-24T05:50:18;0.82;;;0.22;;
16600;SDS011;34891;48.164;11.572;2023-04-24T05:55:21;1.23;;;0.50;;
16600;SDS011;34891;48.164;11.572;2023-04-24T06:00:24;0.50;;;0.40;;
16600;SDS011;34891;48.164;11.572;2023-04-24T06:05:28;1.13;;;0.57;;
16600;SDS011;34891;48.164;11.572;2023-04-24T06:10:32;0.93;;;0.50;;
16600;SDS011;34891;48.164;11.572;2023-04-24T06:15:35;0.32;;;0.30;;
16600;SDS011;34891;48.164;11.572;2023-04-24T06:20:39;0.75;;;0.40;;
16600;SDS011;34891;48.164;11.572;2023-04-24T06:25:42;0.20;;;0.20;;
16600;SDS011;34891;48.164;11.572;2023-04-24T06:30:45;0.30;;;0.30;;
16600;SDS011;34891;48.164;11.572;2023-04-24T06:35:49;0.60;;;0.50;;
16600;SDS011;34891;48.164;11.572;2023-04-24T06:40:51;0.40;;;0.40;;
16600;SDS011;34891;48.164;11.572;2023-04-24T06:45:54;0.70;;;0.40;;
16600;SDS011;34891;48.164;11.572;2023-04-24T06:56:02;1.05;;;0.50;;
16600;SDS011;34891;48.164;11.572;2023-04-24T07:01:06;1.73;;;0.40;;
16600;SDS011;34891;48.164;11.572;2023-04-24T07:06:09;0.20;;;0.20;;
16600;SDS011;34891;48.164;11.572;2023-04-24T07:11:16;0.40;;;0.40;;
16600;SDS011;34891;48.164;11.572;2023-04-24T07:16:19;0.20;;;0.20;;
16600;SDS011;34891;48.164;11.572;2023-04-24T07:21:22;0.98;;;0.20;;
16600;SDS011;34891;48.164;11.572;2023-04-24T07:26:27;0.63;;;0.28;;
16600;SDS011;34891;48.164;11.572;2023-04-24T07:31:31;2.08;;;0.32;;
16600;SDS011;34891;48.164;11.572;2023-04-24T07:36:33;0.40;;;0.40;;
16600;SDS011;34891;48.164;11.572;2023-04-24T07:41:38;0.15;;;0.15;;
16600;SDS011;34891;48.164;11.572;2023-04-24T07:46:48;0.65;;;0.32;;
16600;SDS011;34891;48.164;11.572;2023-04-24T07:51:51;0.30;;;0.30;;
16600;SDS011;34891;48.164;11.572;2023-04-24T07:56:55;0.45;;;0.35;;
16600;SDS011;34891;48.164;11.572;2023-04-24T08:01:58;0.20;;;0.20;;
16600;SDS011;34891;48.164;11.572;2023-04-24T08:07:02;0.80;;;0.40;;
16600;SDS011;34891;48.164;11.572;2023-04-24T08:12:07;0.35;;;0.35;;
16600;SDS011;34891;48.164;11.572;2023-04-24T08:17:10;0.40;;;0.40;;
16600;SDS011;34891;48.164;11.572;2023-04-24T08:22:22;1.55;;;0.40;;
16600;SDS011;34891;48.164;11.572;2023-04-24T08:27:27;0.28;;;0.28;;
16600;SDS011;34891;48.164;11.572;2023-04-24T08:32:29;0.73;;;0.32;;
16600;SDS011;34891;48.164;11.572;2023-04-24T08:42:37;1.80;;;0.47;;
16600;SDS011;34891;48.164;11.572;2023-04-24T08:47:43;0.75;;;0.50;;
16600;SDS011;34891;48.164;11.572;2023-04-24T08:52:48;0.70;;;0.70;;
16600;SDS011;34891;48.164;11.572;2023-04-24T08:57:53;2.42;;;0.70;;
16600;SDS011;34891;48.164;11.572;2023-04-24T09:02:59;1.48;;;0.80;;
16600;SDS011;34891;48.164;11.572;2023-04-24T09:08:03;1.33;;;0.65;;
16600;SDS011;34891;48.164;11.572;2023-04-24T09:13:18;2.22;;;0.88;;
16600;SDS011;34891;48.164;11.572;2023-04-24T09:18:22;0.90;;;0.80;;
16600;SDS011;34891;48.164;11.572;2023-04-24T09:23:33;2.47;;;0.68;;
16600;SDS011;34891;48.164;11.572;2023-04-24T09:28:53;2.35;;;1.08;;
16600;SDS011;34891;48.164;11.572;2023-04-24T09:33:57;4.30;;;1.10;;
16600;SDS011;34891;48.164;11.572;2023-04-24T09:39:10;2.38;;;1.30;;
16600;SDS011;34891;48.164;11.572;2023-04-24T09:44:23;1.05;;;0.90;;
16600;SDS011;34891;48.164;11.572;2023-04-24T09:49:35;1.75;;;0.63;;
16600;SDS011;34891;48.164;11.572;2023-04-24T09:54:54;2.03;;;1.05;;
16600;SDS011;34891;48.164;11.572;2023-04-24T10:00:20;3.58;;;1.13;;
16600;SDS011;34891;48.164;11.572;2023-04-24T10:05:48;3.33;;;1.67;;
16600;SDS011;34891;48.164;11.572;2023-04-24T10:11:03;2.95;;;1.30;;
16600;SDS011;34891;48.164;11.572;2023-04-24T10:16:20;2.17;;;0.80;;
16600;SDS011;34891;48.164;11.572;2023-04-24T10:21:25;2.22;;;1.00;;
16600;SDS011;34891;48.164;11.572;2023-04-24T10:31:45;1.20;;;1.10;;
16600;SDS011;34891;48.164;11.572;2023-04-24T10:36:52;0.77;;;0.75;;
16600;SDS011;34891;48.164;11.572;2023-04-24T10:41:59;1.60;;;1.10;;
16600;SDS011;34891;48.164;11.572;2023-04-24T10:47:05;2.15;;;1.10;;
16600;SDS011;34891;48.164;11.572;2023-04-24T10:52:21;0.93;;;0.93;;
16600;SDS011;34891;48.164;11.572;2023-04-24T10:58:02;1.30;;;1.00;;
16600;SDS011;34891;48.164;11.572;2023-04-24T11:03:38;1.30;;;0.63;;
16600;SDS011;34891;48.164;11.572;2023-04-24T11:09:01;1.40;;;0.75;;
16600;SDS011;34891;48.164;11.572;2023-04-24T11:14:16;0.95;;;0.88;;
16600;SDS011;34891;48.164;11.572;2023-04-24T11:19:29;0.80;;;0.80;;
16600;SDS011;34891;48.164;11.572;2023-04-24T11:24:37;3.42;;;1.05;;
16600;SDS011;34891;48.164;11.572;2023-04-24T11:29:48;1.77;;;1.30;;
16600;SDS011;34891;48.164;11.572;2023-04-24T11:35:02;1.35;;;1.00;;
16600;SDS011;34891;48.164;11.572;2023-04-24T12:01:06;0.77;;;0.77;;
16600;SDS011;34891;48.164;11.572;2023-04-24T12:06:18;1.00;;;0.70;;
16600;SDS011;34891;48.164;11.572;2023-04-24T12:27:11;1.08;;;0.98;;
16600;SDS011;34891;48.164;11.572;2023-04-24T12:32:24;1.40;;;1.30;;
16600;SDS011;34891;48.164;11.572;2023-04-24T12:37:32;1.42;;;1.20;;
16600;SDS011;34891;48.164;11.572;2023-04-24T12:43:14;1.55;;;1.00;;
16600;SDS011;34891;48.164;11.572;2023-04-24T12:48:19;2.58;;;1.05;;
16600;SDS011;34891;48.164;11.572;2023-04-24T12:53:24;2.35;;;1.20;;
16600;SDS011;34891;48.164;11.572;2023-04-24T12:58:46;1.95;;;1.13;;
16600;SDS011;34891;48.164;11.572;2023-04-24T13:04:02;2.03;;;0.93;;
16600;SDS011;34891;48.164;11.572;2023-04-24T13:14:37;1.15;;;0.90;;
16600;SDS011;34891;48.164;11.572;2023-04-24T13:19:48;6.18;;;1.42;;
16600;SDS011;34891;48.164;11.572;2023-04-24T13:24:53;3.10;;;1.10;;
16600;SDS011;34891;48.164;11.572;2023-04-24T13:30:06;1.77;;;1.60;;
16600;SDS011;34891;48.164;11.572;2023-04-24T13:40:28;3.92;;;1.30;;
16600;SDS011;34891;48.164;11.572;2023-04-24T13:45:44;1.20;;;1.10;;
16600;SDS011;34891;48.164;11.572;2023-04-24T13:50:51;1.40;;;1.10;;
16600;SDS011;34891;48.164;11.572;2023-04-24T13:55:57;2.17;;;1.50;;
16600;SDS011;34891;48.164;11.572;2023-04-24T14:01:05;2.10;;;1.20;;
16600;SDS011;34891;48.164;11.572;2023-04-24T14:06:25;2.35;;;1.10;;
16600;SDS011;34891;48.164;11.572;2023-04-24T14:11:33;2.55;;;1.38;;
16600;SDS011;34891;48.164;11.572;2023-04-24T14:16:49;1.75;;;1.27;;
16600;SDS011;34891;48.164;11.572;2023-04-24T14:21:52;2.30;;;1.50;;
16600;SDS011;34891;48.164;11.572;2023-04-24T14:27:01;1.58;;;1.30;;
16600;SDS011;34891;48.164;11.572;2023-04-24T14:32:10;2.20;;;1.10;;
16600;SDS011;34891;48.164;11.572;2023-04-24T14:37:17;1.88;;;1.20;;
16600;SDS011;34891;48.164;11.572;2023-04-24T14:42:28;3.80;;;1.20;;
16600;SDS011;34891;48.164;11.572;2023-04-24T14:47:43;3.50;;;1.08;;
16600;SDS011;34891;48.164;11.572;2023-04-24T14:52:53;2.30;;;1.30;;
16600;SDS011;34891;48.164;11.572;2023-04-24T14:58:07;1.35;;;1.00;;
16600;SDS011;34891;48.164;11.572;2023-04-24T15:03:32;3.72;;;1.30;;
16600;SDS011;34891;48.164;11.572;2023-04-24T15:08:42;3.15;;;1.55;;
16600;SDS011;34891;48.164;11.572;2023-04-24T15:13:51;2.20;;;1.10;;
16600;SDS011;34891;48.164;11.572;2023-04-24T15:19:06;2.25;;;1.05;;
16600;SDS011;34891;48.164;11.572;2023-04-24T15:24:16;1.17;;;1.10;;
16600;SDS011;34891;48.164;11.572;2023-04-24T15:29:22;1.58;;;1.15;;
16600;SDS011;34891;48.164;11.572;2023-04-24T15:40:13;2.15;;;1.25;;
16600;SDS011;34891;48.164;11.572;2023-04-24T15:45:33;2.08;;;1.05;;
16600;SDS011;34891;48.164;11.572;2023-04-24T15:50:47;2.88;;;0.95;;
16600;SDS011;34891;48.164;11.572;2023-04-24T15:55:59;1.55;;;1.00;;
16600;SDS011;34891;48.164;11.572;2023-04-24T16:01:04;1.48;;;0.93;;
16600;SDS011;34891;48.164;11.572;2023-04-24T16:06:22;2.25;;;1.13;;
16600;SDS011;34891;48.164;11.572;2023-04-24T16:11:31;1.08;;;0.98;;
16600;SDS011;34891;48.164;11.572;2023-04-24T16:16:52;5.90;;;1.00;;
16600;SDS011;34891;48.164;11.572;2023-04-24T16:21:57;1.17;;;0.90;;
16600;SDS011;34891;48.164;11.572;2023-04-24T16:27:20;2.00;;;1.02;;
16600;SDS011;34891;48.164;11.572;2023-04-24T16:32:25;5.15;;;1.15;;
16600;SDS011;34891;48.164;11.572;2023-04-24T16:37:34;1.92;;;1.08;;
16600;SDS011;34891;48.164;11.572;2023-04-24T16:42:48;1.57;;;0.90;;
16600;SDS011;34891;48.164;11.572;2023-04-24T16:47:58;1.15;;;0.70;;
16600;SDS011;34891;48.164;11.572;2023-04-24T16:58:19;1.45;;;0.80;;
16600;SDS011;34891;48.164;11.572;2023-04-24T17:03:26;1.00;;;0.73;;
16600;SDS011;34891;48.164;11.572;2023-04-24T17:08:38;2.47;;;0.70;;
16600;SDS011;34891;48.164;11.572;2023-04-24T17:13:44;1.05;;;0.63;;
16600;SDS011;34891;48.164;11.572;2023-04-24T17:18:56;0.75;;;0.60;;
16600;SDS011;34891;48.164;11.572;2023-04-24T17:24:00;0.80;;;0.80;;
16600;SDS011;34891;48.164;11.572;2023-04-24T17:29:21;1.23;;;0.90;;
16600;SDS011;34891;48.164;11.572;2023-04-24T17:34:26;2.00;;;1.00;;
16600;SDS011;34891;48.164;11.572;2023-04-24T17:45:03;1.95;;;0.70;;
16600;SDS011;34891;48.164;11.572;2023-04-24T17:50:14;1.98;;;1.00;;
16600;SDS011;34891;48.164;11.572;2023-04-24T17:55:25;1.42;;;0.90;;
16600;SDS011;34891;48.164;11.572;2023-04-24T18:00:35;1.65;;;1.00;;
16600;SDS011;34891;48.164;11.572;2023-04-24T18:05:40;0.85;;;0.70;;
16600;SDS011;34891;48.164;11.572;2023-04-24T18:10:51;1.42;;;1.00;;
16600;SDS011;34891;48.164;11.572;2023-04-24T18:16:34;1.13;;;0.82;;
16600;SDS011;34891;48.164;11.572;2023-04-24T18:21:43;3.38;;;0.68;;
16600;SDS011;34891;48.164;11.572;2023-04-24T18:26:52;2.30;;;0.88;;
16600;SDS011;34891;48.164;11.572;2023-04-24T18:32:07;2.22;;;1.20;;
16600;SDS011;34891;48.164;11.572;2023-04-24T18:37:24;2.05;;;0.82;;
16600;SDS011;34891;48.164;11.572;2023-04-24T21:17:15;2.90;;;1.50;;
16600;SDS011;34891;48.164;11.572;2023-04-24T21:22:18;2.60;;;2.05;;
16600;SDS011;34891;48.164;11.572;2023-04-24T21:27:22;2.08;;;1.35;;
16600;SDS011;34891;48.164;11.572;2023-04-24T21:32:27;1.98;;;1.23;;
16600;SDS011;34891;48.164;11.572;2023-04-24T21:42:33;2.28;;;1.42;;
16600;SDS011;34891;48.164;11.572;2023-04-24T21:47:38;1.50;;;0.80;;
16600;SDS011;34891;48.164;11.572;2023-04-24T21:52:42;4.28;;;1.40;;
16600;SDS011;34891;48.164;11.572;2023-04-24T21:57:44;5.95;;;2.00;;
16600;SDS011;34891;48.164;11.572;2023-04-24T22:02:49;3.97;;;1.67;;
16600;SDS011;34891;48.164;11.572;2023-04-24T22:07:53;2.85;;;1.42;;
16600;SDS011;34891;48.164;11.572;2023-04-24T22:12:56;2.95;;;1.50;;
16600;SDS011;34891;48.164;11.572;2023-04-24T22:18:03;1.23;;;0.93;;
16600;SDS011;34891;48.164;11.572;2023-04-24T22:23:07;3.58;;;1.20;;
16600;SDS011;34891;48.164;11.572;2023-04-24T22:28:10;2.17;;;1.43;;
16600;SDS011;34891;48.164;11.572;2023-04-24T22:33:15;1.23;;;0.75;;
16600;SDS011;34891;48.164;11.572;2023-04-24T22:38:19;1.42;;;0.52;;
16600;SDS011;34891;48.164;11.572;2023-04-24T22:43:22;2.55;;;1.58;;
16600;SDS011;34891;48.164;11.572;2023-04-24T22:53:30;2.88;;;1.63;;
16600;SDS011;34891;48.164;11.572;2023-04-24T23:03:36;1.85;;;1.15;;
16600;SDS011;34891;48.164;11.572;2023-04-24T23:08:41;0.35;;;0.35;;
16600;SDS011;34891;48.164;11.572;2023-04-24T23:13:44;3.15;;;1.05;;
16600;SDS011;34891;48.164;11.572;2023-04-24T23:18:47;2.00;;;1.05;;
16600;SDS011;34891;48.164;11.572;2023-04-24T23:23:52;0.83;;;0.77;;
16600;SDS011;34891;48.164;11.572;2023-04-24T23:28:56;2.58;;;1.20;;
16600;SDS011;34891;48.164;11.572;2023-04-24T23:33:58;1.17;;;0.90;;
16600;SDS011;34891;48.164;11.572;2023-04-24T23:39:04;2.63;;;1.55;;
16600;SDS011;34891;48.164;11.572;2023-04-24T23:44:07;2.05;;;0.77;;
16600;SDS011;34891;48.164;11.572;2023-04-24T23:49:11;2.55;;;1.48;;
16600;SDS011;34891;48.164;11.572;2023-04-24T23:54:17;0.93;;;0.57;;
16600;SDS011;34891;48.164;11.572;2023-04-24T23:59:21;2.53;;;1.33;;
